Terminal Aerodrome Forecast
Issued by NWS Charleston, SC

Home | Current Version | Previous Version | Text Only | Print | Product List | Glossary On
Versions: 1 2 3 4 5 6 7 8 9 10 11 12 13 14 15 16 17 18
000
FTUS42 KCHS 252323
TAFSAV
TAF
KSAV 252323Z 2600/2624 10008KT P6SM FEW060
     FM260200 VRB03KT P6SM FEW025
     FM261600 11011G16KT P6SM SCT050=

USA.gov is the U.S. government's official web portal to all federal, state and local government web resources and services.